createdAt,value
2022-08-22T00:02:03.044Z,99633.34
2022-08-22T00:05:17.722Z,99638.34
2022-08-22T00:08:55.035Z,99640.00
2022-08-22T00:12:06.500Z,99641.22
2022-08-22T00:15:43.171Z,99638.72
2022-08-22T00:19:12.176Z,99631.44
2022-08-22T00:22:36.199Z,99635.13
2022-08-22T00:26:11.217Z,99632.78
2022-08-22T00:29:26.997Z,99644.81
2022-08-22T00:32:37.680Z,99642.63
2022-08-22T00:35:45.346Z,99643.84
2022-08-22T00:38:58.978Z,99635.72
2022-08-22T00:42:29.045Z,99640.16
2022-08-22T00:45:59.439Z,99637.75
2022-08-22T00:49:11.475Z,99640.66
2022-08-22T00:52:44.001Z,99646.03
2022-08-22T00:56:23.766Z,99646.78
2022-08-22T00:59:42.911Z,99644.44
2022-08-22T01:03:21.137Z,99642.75
2022-08-22T01:07:11.240Z,99642.19
2022-08-22T01:10:35.473Z,99636.81
2022-08-22T01:13:56.975Z,99649.69
2022-08-22T01:17:00.755Z,99644.81
2022-08-22T01:20:22.143Z,99640.47
2022-08-22T01:23:46.157Z,99639.75
2022-08-22T01:26:56.512Z,99640.59
2022-08-22T01:30:41.244Z,99638.69
2022-08-22T01:34:24.847Z,99633.56
2022-08-22T01:37:54.447Z,99638.69
2022-08-22T01:41:12.121Z,99633.69
2022-08-22T01:44:21.000Z,99639.19
2022-08-22T01:47:37.389Z,99638.38
2022-08-22T01:50:53.145Z,99641.81
2022-08-22T01:54:05.322Z,99632.03
2022-08-22T01:57:09.211Z,99642.25
2022-08-22T02:00:17.852Z,99642.66
2022-08-22T02:03:56.920Z,99647.50
2022-08-22T02:07:08.913Z,99637.41
2022-08-22T02:11:10.463Z,99639.75
2022-08-22T02:14:21.933Z,99639.19
2022-08-22T02:17:50.353Z,99632.03
2022-08-22T02:21:25.077Z,99634.81
2022-08-22T02:24:40.652Z,99631.97
2022-08-22T02:27:59.688Z,99630.53
2022-08-22T02:31:07.533Z,99619.59
2022-08-22T02:34:38.607Z,99626.91
2022-08-22T02:38:01.778Z,99623.19
2022-08-22T02:41:19.547Z,99626.00
2022-08-22T02:44:35.429Z,99619.34
2022-08-22T02:47:56.821Z,99623.44
2022-08-22T02:51:32.319Z,99622.50
2022-08-22T02:54:59.658Z,99616.78
2022-08-22T02:58:17.855Z,99619.75
2022-08-22T03:01:33.285Z,99616.91
2022-08-22T03:04:42.008Z,99620.03
2022-08-22T03:07:56.883Z,99623.09
2022-08-22T03:11:17.799Z,99618.44
2022-08-22T03:14:35.577Z,99622.50
2022-08-22T03:18:00.190Z,99633.34
2022-08-22T03:21:41.076Z,99629.91
2022-08-22T03:24:55.552Z,99632.66
2022-08-22T03:28:08.401Z,99630.97
2022-08-22T03:31:13.179Z,99637.78
2022-08-22T03:34:26.411Z,99635.00
2022-08-22T03:37:35.257Z,99646.94
2022-08-22T03:40:53.005Z,99637.97
2022-08-22T03:44:16.763Z,99642.25
2022-08-22T03:47:28.628Z,99645.31
2022-08-22T03:51:08.279Z,99647.72
2022-08-22T03:54:33.205Z,99645.50
2022-08-22T03:58:04.050Z,99639.84
2022-08-22T04:01:19.359Z,99646.03
2022-08-22T04:04:40.454Z,99643.28
2022-08-22T04:08:26.255Z,99649.69
2022-08-22T04:12:01.370Z,99649.41
2022-08-22T04:15:26.044Z,99659.50
2022-08-22T04:19:00.702Z,99657.19
2022-08-22T04:22:13.920Z,99653.41
2022-08-22T04:25:29.844Z,99651.03
2022-08-22T04:28:46.591Z,99652.16
2022-08-22T04:32:16.420Z,99656.63
2022-08-22T04:35:34.649Z,99658.31
2022-08-22T04:38:47.777Z,99662.22
2022-08-22T04:42:10.923Z,99668.84
2022-08-22T04:45:24.141Z,99669.97
2022-08-22T04:48:36.085Z,99667.28
2022-08-22T04:51:47.777Z,99667.31
2022-08-22T04:55:08.666Z,99663.97
2022-08-22T04:58:39.198Z,99662.22
2022-08-22T05:01:56.523Z,99670.34
2022-08-22T05:05:13.581Z,99672.72
2022-08-22T05:08:23.701Z,99669.28
2022-08-22T05:11:27.777Z,99667.06
2022-08-22T05:15:07.212Z,99672.59
2022-08-22T05:18:24.048Z,99679.63
2022-08-22T05:21:36.020Z,99677.28
2022-08-22T05:24:53.662Z,99685.06
2022-08-22T05:28:08.584Z,99682.41
2022-08-22T05:31:18.596Z,99689.22
2022-08-22T05:34:34.355Z,99692.25
2022-08-22T05:37:40.373Z,99697.38
2022-08-22T05:40:44.922Z,99699.06
2022-08-22T05:43:48.807Z,99701.81
2022-08-22T05:46:57.388Z,99702.66
2022-08-22T05:50:05.434Z,99698.09
2022-08-22T05:53:12.833Z,99695.56
2022-08-22T05:56:28.238Z,99704.56
2022-08-22T05:59:34.644Z,99711.50
2022-08-22T06:03:09.431Z,99714.09
2022-08-22T06:06:18.322Z,99719.31
2022-08-22T06:09:39.840Z,99718.16
2022-08-22T06:13:02.535Z,99721.34
2022-08-22T06:16:34.233Z,99729.81
2022-08-22T06:19:42.058Z,99721.19
2022-08-22T06:22:51.801Z,99730.97
2022-08-22T06:26:01.620Z,99733.50
2022-08-22T06:29:07.351Z,99729.00
2022-08-22T06:32:52.876Z,99723.38
2022-08-22T06:36:09.886Z,99727.91
2022-08-22T06:39:31.237Z,99724.63
2022-08-22T06:42:39.142Z,99726.44
2022-08-22T06:45:41.971Z,99734.28
2022-08-22T06:48:45.642Z,99735.56
2022-08-22T06:51:49.951Z,99742.78
2022-08-22T06:55:00.411Z,99739.38
2022-08-22T06:58:07.306Z,99729.19
2022-08-22T07:01:18.192Z,99732.63
2022-08-22T07:04:26.591Z,99734.97
2022-08-22T07:07:29.100Z,99738.16
2022-08-22T07:10:34.936Z,99737.03
2022-08-22T07:13:43.083Z,99734.16
2022-08-22T07:16:57.288Z,99738.34
2022-08-22T07:20:23.997Z,99740.25
2022-08-22T07:23:31.515Z,99742.63
2022-08-22T07:27:02.168Z,99752.38
2022-08-22T07:30:13.080Z,99751.06
2022-08-22T07:33:39.137Z,99753.62
2022-08-22T07:37:14.798Z,99742.81
2022-08-22T07:41:08.734Z,99744.91
2022-08-22T07:44:22.698Z,99753.03
2022-08-22T07:47:34.271Z,99742.50
2022-08-22T07:51:14.865Z,99744.28
2022-08-22T07:54:27.158Z,99755.97
2022-08-22T07:57:32.975Z,99752.00
2022-08-22T08:00:43.309Z,99754.56
2022-08-22T08:03:57.179Z,99753.66
2022-08-22T08:07:03.044Z,99750.84
2022-08-22T08:10:13.153Z,99759.44
2022-08-22T08:13:24.540Z,99756.28
2022-08-22T08:16:31.850Z,99753.34
2022-08-22T08:19:38.302Z,99748.87
2022-08-22T08:22:44.693Z,99759.47
2022-08-22T08:26:12.271Z,99758.13
2022-08-22T08:29:18.706Z,99755.31
2022-08-22T08:32:27.890Z,99761.47
2022-08-22T08:35:42.361Z,99761.78
2022-08-22T08:39:41.588Z,99762.09
2022-08-22T08:43:27.456Z,99755.16
2022-08-22T08:46:55.579Z,99759.13
2022-08-22T08:50:01.799Z,99762.94
2022-08-22T08:53:25.671Z,99755.81
2022-08-22T08:56:38.005Z,99750.34
2022-08-22T08:59:44.081Z,99755.00
2022-08-22T09:02:59.044Z,99756.66
2022-08-22T09:06:10.661Z,99753.50
2022-08-22T09:09:52.378Z,99757.59
2022-08-22T09:13:29.611Z,99757.25
2022-08-22T09:17:15.425Z,99753.81
2022-08-22T09:20:24.497Z,99755.31
2022-08-22T09:24:02.349Z,99749.84
2022-08-22T09:27:25.129Z,99757.59
2022-08-22T09:30:46.318Z,99749.37
2022-08-22T09:34:43.364Z,99741.87
2022-08-22T09:37:59.083Z,99737.94
2022-08-22T09:41:40.777Z,99751.88
2022-08-22T09:45:11.826Z,99749.00
2022-08-22T09:48:36.220Z,99751.13
2022-08-22T09:52:03.663Z,99753.34
2022-08-22T09:55:50.079Z,99756.28
2022-08-22T09:59:12.040Z,99758.53
2022-08-22T10:02:20.396Z,99750.25
2022-08-22T10:05:43.947Z,99746.16
2022-08-22T10:09:14.176Z,99756.63
2022-08-22T10:12:35.167Z,99748.81
2022-08-22T10:15:45.896Z,99761.41
2022-08-22T10:19:20.146Z,99765.66
2022-08-22T10:22:40.852Z,99769.22
2022-08-22T10:25:51.653Z,99765.69
2022-08-22T10:29:09.200Z,99769.44
2022-08-22T10:32:37.850Z,99772.47
2022-08-22T10:35:43.633Z,99774.59
2022-08-22T10:38:53.317Z,99760.97
2022-08-22T10:42:23.291Z,99761.41
2022-08-22T10:45:39.739Z,99764.06
2022-08-22T10:48:48.934Z,99763.06
2022-08-22T10:52:06.531Z,99762.75
2022-08-22T10:55:25.862Z,99763.28
2022-08-22T10:58:36.879Z,99761.88
2022-08-22T11:01:51.184Z,99758.06
2022-08-22T11:05:00.116Z,99754.72
2022-08-22T11:08:34.707Z,99747.53
2022-08-22T11:11:54.203Z,99750.72
2022-08-22T11:15:09.048Z,99743.28
2022-08-22T11:18:20.857Z,99743.50
2022-08-22T11:21:46.170Z,99750.13
2022-08-22T11:25:11.250Z,99743.13
2022-08-22T11:28:41.865Z,99743.88
2022-08-22T11:32:11.523Z,99745.97
2022-08-22T11:35:24.018Z,99746.06
2022-08-22T11:38:33.327Z,99741.81
2022-08-22T11:41:41.538Z,99737.62
2022-08-22T11:44:54.339Z,99732.69
2022-08-22T11:48:02.329Z,99740.84
2022-08-22T11:51:15.437Z,99731.34
2022-08-22T11:54:30.962Z,99727.75
2022-08-22T11:57:55.989Z,99726.34
2022-08-22T12:01:09.631Z,99731.75
2022-08-22T12:04:34.346Z,99726.03
2022-08-22T12:07:50.548Z,99735.53
2022-08-22T12:11:07.557Z,99726.94
2022-08-22T12:14:28.709Z,99723.28
2022-08-22T12:18:01.599Z,99735.81
2022-08-22T12:21:32.673Z,99729.72
2022-08-22T12:25:10.979Z,99727.19
2022-08-22T12:28:32.496Z,99722.91
2022-08-22T12:32:28.569Z,99729.16
2022-08-22T12:35:30.980Z,99724.72
2022-08-22T12:39:00.257Z,99712.88
2022-08-22T12:42:41.862Z,99715.47
2022-08-22T12:46:15.692Z,99710.03
2022-08-22T12:49:22.756Z,99703.78
2022-08-22T12:52:53.681Z,99709.47
2022-08-22T12:56:12.276Z,99704.63
2022-08-22T12:59:32.496Z,99700.59
2022-08-22T13:02:39.721Z,99698.44
2022-08-22T13:05:56.852Z,99699.84
2022-08-22T13:09:19.794Z,99690.66
2022-08-22T13:12:44.608Z,99696.53
2022-08-22T13:15:57.907Z,99684.53
2022-08-22T13:19:07.593Z,99689.66
2022-08-22T13:22:16.857Z,99688.59
2022-08-22T13:25:25.379Z,99689.00
2022-08-22T13:28:31.869Z,99700.28
2022-08-22T13:31:38.695Z,99709.47
2022-08-22T13:35:00.446Z,99715.47
2022-08-22T13:38:12.332Z,99719.81
2022-08-22T13:41:42.627Z,99726.16
2022-08-22T13:44:54.649Z,99723.44
2022-08-22T13:48:03.701Z,99730.62
2022-08-22T13:51:25.137Z,99738.19
2022-08-22T13:54:53.104Z,99745.06
2022-08-22T13:58:07.660Z,99745.66
2022-08-22T14:01:54.415Z,99738.41
2022-08-22T14:05:01.281Z,99734.87
2022-08-22T14:08:15.386Z,99737.66
2022-08-22T14:11:27.483Z,99725.66
2022-08-22T14:14:35.242Z,99729.59
2022-08-22T14:17:43.611Z,99723.41
2022-08-22T14:20:51.415Z,99725.31
2022-08-22T14:24:00.138Z,99723.81
2022-08-22T14:27:09.657Z,99721.53
2022-08-22T14:30:17.049Z,99715.88
2022-08-22T14:33:48.028Z,99719.25
2022-08-22T14:37:01.793Z,99714.19
2022-08-22T14:40:10.776Z,99708.41
2022-08-22T14:43:31.910Z,99711.06
2022-08-22T14:46:47.783Z,99722.59
2022-08-22T14:49:56.815Z,99731.91
2022-08-22T14:53:09.618Z,99733.16
2022-08-22T14:56:24.889Z,99737.19
2022-08-22T14:59:50.370Z,99732.16
2022-08-22T15:03:05.413Z,99729.69
2022-08-22T15:06:12.786Z,99720.38
2022-08-22T15:09:36.371Z,99735.69
2022-08-22T15:12:55.766Z,99731.47
2022-08-22T15:16:05.660Z,99724.38
2022-08-22T15:19:45.728Z,99740.41
2022-08-22T15:22:49.562Z,99743.53
2022-08-22T15:26:13.257Z,99752.97
2022-08-22T15:29:25.298Z,99745.41
2022-08-22T15:32:32.303Z,99745.81
2022-08-22T15:35:38.870Z,99742.22
2022-08-22T15:38:47.895Z,99749.84
2022-08-22T15:42:10.075Z,99743.75
2022-08-22T15:45:29.805Z,99748.94
2022-08-22T15:48:42.834Z,99744.28
2022-08-22T15:52:00.926Z,99750.41
2022-08-22T15:55:15.799Z,99776.66
2022-08-22T15:58:24.643Z,99783.84
2022-08-22T16:01:49.998Z,99782.78
2022-08-22T16:05:05.692Z,99787.53
2022-08-22T16:08:14.263Z,99781.47
2022-08-22T16:11:23.766Z,99778.44
2022-08-22T16:14:35.855Z,99780.69
2022-08-22T16:17:43.064Z,99776.56
2022-08-22T16:20:53.034Z,99773.09
2022-08-22T16:23:58.707Z,99770.72
2022-08-22T16:27:18.945Z,99766.50
2022-08-22T16:30:33.504Z,99769.66
2022-08-22T16:33:40.075Z,99770.59
2022-08-22T16:36:49.082Z,99769.88
2022-08-22T16:40:09.570Z,99769.62
2022-08-22T16:43:19.919Z,99773.16
2022-08-22T16:46:33.126Z,99774.69
2022-08-22T16:49:53.038Z,99785.78
2022-08-22T16:53:20.536Z,99778.19
2022-08-22T16:57:04.061Z,99784.88
2022-08-22T17:00:22.761Z,99788.97
2022-08-22T17:03:31.924Z,99783.69
2022-08-22T17:06:49.508Z,99785.88
2022-08-22T17:09:55.245Z,99792.06
2022-08-22T17:13:27.408Z,99795.63
2022-08-22T17:16:39.835Z,99800.50
2022-08-22T17:20:01.368Z,99813.13
2022-08-22T17:23:11.879Z,99813.84
2022-08-22T17:26:34.578Z,99811.50
2022-08-22T17:29:51.999Z,99816.78
2022-08-22T17:33:09.821Z,99820.44
2022-08-22T17:36:26.336Z,99825.97
2022-08-22T17:40:04.446Z,99832.41
2022-08-22T17:43:16.478Z,99822.94
2022-08-22T17:46:46.738Z,99830.34
2022-08-22T17:50:19.668Z,99828.84
2022-08-22T17:53:27.920Z,99829.09
2022-08-22T17:56:50.145Z,99834.50
2022-08-22T18:00:15.926Z,99844.34
2022-08-22T18:03:31.603Z,99841.87
2022-08-22T18:06:38.804Z,99845.50
2022-08-22T18:09:59.689Z,99834.44
2022-08-22T18:13:14.979Z,99843.28
2022-08-22T18:16:47.332Z,99842.06
2022-08-22T18:19:54.137Z,99832.50
2022-08-22T18:23:02.327Z,99837.47
2022-08-22T18:26:27.744Z,99842.13
2022-08-22T18:29:42.699Z,99837.09
2022-08-22T18:33:13.701Z,99844.41
2022-08-22T18:36:17.346Z,99844.09
2022-08-22T18:39:50.748Z,99845.47
2022-08-22T18:43:05.797Z,99834.91
2022-08-22T18:46:30.174Z,99843.47
2022-08-22T18:49:40.237Z,99843.66
2022-08-22T18:52:42.866Z,99859.66
2022-08-22T18:56:13.209Z,99867.03
2022-08-22T18:59:21.838Z,99862.91
2022-08-22T19:03:14.629Z,99871.06
2022-08-22T19:06:32.073Z,99864.16
2022-08-22T19:10:04.492Z,99868.69
2022-08-22T19:13:39.048Z,99863.31
2022-08-22T19:17:23.301Z,99873.75
2022-08-22T19:20:54.473Z,99880.22
2022-08-22T19:23:58.004Z,99883.38
2022-08-22T19:27:18.772Z,99886.59
2022-08-22T19:30:33.773Z,99894.06
2022-08-22T19:33:41.791Z,99896.31
2022-08-22T19:36:46.287Z,99894.06
2022-08-22T19:39:51.497Z,99890.34
2022-08-22T19:43:26.352Z,99896.69
2022-08-22T19:46:39.709Z,99896.00
2022-08-22T19:49:49.389Z,99896.69
2022-08-22T19:53:18.763Z,99894.78
2022-08-22T19:56:52.571Z,99901.03
2022-08-22T20:00:08.370Z,99898.97
2022-08-22T20:03:31.110Z,99893.84
2022-08-22T20:06:44.988Z,99893.94
2022-08-22T20:10:19.157Z,99884.66
2022-08-22T20:13:25.310Z,99899.63
2022-08-22T20:16:58.919Z,99895.72
2022-08-22T20:20:19.234Z,99890.19
2022-08-22T20:23:28.348Z,99894.47
2022-08-22T20:26:31.643Z,99887.13
2022-08-22T20:29:38.042Z,99887.13
2022-08-22T20:32:58.002Z,99877.31
2022-08-22T20:36:05.739Z,99884.91
2022-08-22T20:39:11.217Z,99885.88
2022-08-22T20:42:16.100Z,99885.19
2022-08-22T20:45:22.164Z,99889.34
2022-08-22T20:48:41.025Z,99884.72
2022-08-22T20:51:52.136Z,99876.38
2022-08-22T20:55:31.582Z,99875.62
2022-08-22T20:58:39.970Z,99883.69
2022-08-22T21:01:43.432Z,99890.25
2022-08-22T21:05:00.612Z,99884.97
2022-08-22T21:08:15.100Z,99891.19
2022-08-22T21:11:40.798Z,99874.13
2022-08-22T21:14:46.362Z,99873.56
2022-08-22T21:17:50.281Z,99870.41
2022-08-22T21:20:52.952Z,99875.91
2022-08-22T21:24:00.560Z,99870.94
2022-08-22T21:27:06.638Z,99867.47
2022-08-22T21:30:11.364Z,99875.22
2022-08-22T21:33:23.630Z,99871.63
2022-08-22T21:36:31.160Z,99873.28
2022-08-22T21:39:44.152Z,99875.44
2022-08-22T21:43:08.371Z,99882.28
2022-08-22T21:46:10.973Z,99878.97
2022-08-22T21:49:24.556Z,99869.72
2022-08-22T21:52:29.289Z,99874.16
2022-08-22T21:55:47.937Z,99874.22
2022-08-22T21:58:50.473Z,99875.03
2022-08-22T22:01:55.772Z,99870.87
2022-08-22T22:05:00.709Z,99875.88
2022-08-22T22:08:04.751Z,99874.66
2022-08-22T22:11:13.527Z,99882.41
2022-08-22T22:14:16.180Z,99896.66
2022-08-22T22:17:20.096Z,99905.38
2022-08-22T22:20:24.445Z,99902.87
2022-08-22T22:23:27.858Z,99910.03
2022-08-22T22:26:31.149Z,99911.47
2022-08-22T22:29:35.159Z,99916.31
2022-08-22T22:32:37.708Z,99915.16
2022-08-22T22:35:40.842Z,99924.59
2022-08-22T22:38:43.759Z,99922.84
2022-08-22T22:41:47.448Z,99929.59
2022-08-22T22:44:49.991Z,99926.91
2022-08-22T22:47:52.882Z,99924.41
2022-08-22T22:50:55.392Z,99918.06
2022-08-22T22:53:58.371Z,99919.78
2022-08-22T22:57:00.946Z,99922.81
2022-08-22T23:00:07.404Z,99924.78
2022-08-22T23:03:10.141Z,99930.53
2022-08-22T23:06:18.802Z,99929.59
2022-08-22T23:09:21.422Z,99931.53
2022-08-22T23:12:31.130Z,99930.94
2022-08-22T23:15:33.664Z,99937.03
2022-08-22T23:18:36.551Z,99939.53
2022-08-22T23:21:39.598Z,99934.84
2022-08-22T23:24:42.745Z,99931.00
2022-08-22T23:27:52.133Z,99940.81
2022-08-22T23:30:55.867Z,99934.84
2022-08-22T23:34:13.803Z,99939.28
2022-08-22T23:37:19.877Z,99934.72
2022-08-22T23:40:22.504Z,99937.22
2022-08-22T23:43:25.491Z,99932.84
2022-08-22T23:46:28.107Z,99922.53
2022-08-22T23:49:34.852Z,99920.19
2022-08-22T23:52:37.404Z,99916.69
2022-08-22T23:55:40.468Z,99924.13
2022-08-22T23:58:43.159Z,99912.00
